Time;durP1;ratioP1;P1;durP2;ratioP2;P2;SDS_P1;SDS_P2;PMS_P1;PMS_P2;Temp;Humidity;BMP_temperature;BMP_pressure;BME280_temperature;BME280_humidity;BME280_pressure;Samples;Min_cycle;Max_cycle;Signal;HPM_P1;HPM_P2
2021/10/01 00:01:14;;;;;;;6.28;2.20;;;;;;;7.51;85.60;97689.34;1824184;78;21035;-79
2021/10/01 00:03:40;;;;;;;6.70;2.47;;;;;;;7.46;85.62;97687.12;1824220;78;20957;-79
2021/10/01 00:06:06;;;;;;;4.85;2.45;;;;;;;7.43;85.81;97691.27;1824270;78;20897;-79
2021/10/01 00:08:32;;;;;;;4.75;2.17;;;;;;;7.42;85.87;97688.81;1824033;79;21012;-79
2021/10/01 00:10:58;;;;;;;4.67;2.80;;;;;;;7.44;85.94;97691.61;1824281;78;21335;-79
2021/10/01 00:13:27;;;;;;;3.25;2.25;;;;;;;7.46;86.04;97692.30;1824195;78;20941;-79
2021/10/01 00:15:53;;;;;;;3.92;2.40;;;;;;;7.47;85.98;97690.05;1824158;78;20934;-79
2021/10/01 00:18:19;;;;;;;5.33;2.27;;;;;;;7.42;85.97;97683.64;1824217;78;21000;-79
2021/10/01 00:20:45;;;;;;;6.22;2.37;;;;;;;7.38;85.97;97687.44;1824356;78;20956;-79
2021/10/01 00:23:10;;;;;;;4.12;2.02;;;;;;;7.36;85.96;97685.47;1824254;78;20964;-79
2021/10/01 00:25:36;;;;;;;4.78;2.60;;;;;;;7.35;86.45;97679.95;1824209;78;21329;-79
2021/10/01 00:28:02;;;;;;;4.17;2.10;;;;;;;7.35;86.68;97683.36;1824180;78;21005;-79
2021/10/01 00:30:28;;;;;;;5.75;2.22;;;;;;;7.39;86.64;97680.03;1824412;78;20956;-79
2021/10/01 00:32:53;;;;;;;2.60;2.05;;;;;;;7.40;86.75;97681.19;1824168;78;20964;-79
2021/10/01 00:35:20;;;;;;;4.90;2.50;;;;;;;7.40;86.63;97674.72;1824097;78;20968;-79
2021/10/01 00:37:46;;;;;;;4.00;2.02;;;;;;;7.40;86.51;97676.49;1824173;78;20968;-79
2021/10/01 00:40:12;;;;;;;5.33;1.95;;;;;;;7.36;86.27;97685.47;1824002;78;20909;-79
2021/10/01 00:42:38;;;;;;;2.83;1.65;;;;;;;7.35;86.17;97676.08;1824321;78;21396;-79
2021/10/01 00:45:06;;;;;;;2.87;1.42;;;;;;;7.33;86.35;97672.80;1823742;78;21048;-79
2021/10/01 00:47:31;;;;;;;2.58;1.70;;;;;;;7.34;86.33;97673.14;1824297;78;20968;-79
2021/10/01 00:49:57;;;;;;;2.58;1.60;;;;;;;7.33;86.49;97667.16;1824479;78;21376;-79
2021/10/01 00:52:23;;;;;;;5.65;2.10;;;;;;;7.32;86.23;97659.50;1824243;78;20957;-79
2021/10/01 00:54:49;;;;;;;3.20;1.90;;;;;;;7.27;86.47;97668.95;1824139;78;21228;-79
2021/10/01 00:57:15;;;;;;;2.77;1.82;;;;;;;7.23;86.71;97666.28;1797001;79;21406;-79
2021/10/01 00:59:41;;;;;;;2.60;1.70;;;;;;;7.24;86.74;97665.33;1824061;78;20953;-79
2021/10/01 01:02:06;;;;;;;3.35;1.27;;;;;;;7.25;86.42;97655.81;1813866;78;20925;-79
2021/10/01 01:04:32;;;;;;;3.90;1.60;;;;;;;7.25;86.51;97661.80;1807260;79;20906;-79
2021/10/01 01:07:10;;;;;;;9.40;3.60;;;;;;;7.23;86.66;97660.64;1794680;78;21036;-79
2021/10/01 01:10:11;;;;;;;2.77;1.57;;;;;;;7.23;86.76;97668.39;1823662;78;20941;-81
2021/10/01 01:13:05;;;;;;;2.58;1.45;;;;;;;7.20;86.66;97664.78;1797930;79;21348;-81
2021/10/01 01:15:33;;;;;;;1.77;1.27;;;;;;;7.14;86.91;97662.69;1824487;78;20953;-81
2021/10/01 01:18:15;;;;;;;3.72;1.22;;;;;;;7.12;86.95;97663.77;1824464;79;21008;-81
2021/10/01 01:20:51;;;;;;;;;;;;;;;7.09;87.02;97662.27;1827158;78;21060;-81
2021/10/01 01:23:35;;;;;;;4.30;1.37;;;;;;;7.08;87.03;97659.81;1824366;78;20106;-81
2021/10/01 01:26:29;;;;;;;1.72;1.30;;;;;;;7.06;87.22;97658.66;1815587;78;20989;-81
2021/10/01 01:29:29;;;;;;;2.62;1.55;;;;;;;7.06;87.24;97659.95;1797967;78;20989;-81
2021/10/01 01:32:01;;;;;;;2.27;1.50;;;;;;;7.06;87.39;97661.72;1798088;80;20989;-81
2021/10/01 01:34:36;;;;;;;4.42;1.45;;;;;;;7.03;87.49;97664.09;1797909;78;21056;-81
2021/10/01 01:37:15;;;;;;;2.20;1.05;;;;;;;7.04;87.53;97661.84;1798150;80;20952;-81
2021/10/01 01:39:40;;;;;;;2.58;1.10;;;;;;;7.05;87.44;97663.95;1797852;78;20953;-81
2021/10/01 01:42:06;;;;;;;3.52;1.72;;;;;;;7.05;87.41;97655.73;1797919;80;21316;-81
2021/10/01 01:44:32;;;;;;;2.67;1.50;;;;;;;7.05;87.39;97659.61;1797906;80;20921;-81
2021/10/01 01:46:58;;;;;;;3.02;1.40;;;;;;;7.06;87.52;97661.23;1798160;78;21015;-81
2021/10/01 01:49:25;;;;;;;3.35;1.65;;;;;;;7.04;87.50;97659.73;1797783;80;20980;-81
2021/10/01 01:51:50;;;;;;;2.33;0.98;;;;;;;7.03;87.54;97664.09;1797757;80;20964;-81
2021/10/01 01:54:18;;;;;;;2.10;1.15;;;;;;;7.02;87.48;97662.45;1797967;80;20907;-81
2021/10/01 01:56:44;;;;;;;2.65;1.00;;;;;;;7.03;87.49;97662.80;1756709;78;20984;-81
2021/10/01 01:59:10;;;;;;;3.87;3.02;;;;;;;7.05;87.11;97661.37;1797963;78;21482;-81
2021/10/01 02:01:35;;;;;;;3.47;1.17;;;;;;;7.06;86.79;97659.13;1797786;80;20929;-81
2021/10/01 02:04:01;;;;;;;2.60;1.27;;;;;;;7.02;86.63;97665.03;1797996;78;20944;-81
2021/10/01 02:06:28;;;;;;;2.90;1.55;;;;;;;6.99;86.86;97661.39;1771243;80;20918;-81
2021/10/01 02:08:54;;;;;;;2.10;1.32;;;;;;;6.97;86.96;97665.05;1797628;78;21316;-79
2021/10/01 02:11:20;;;;;;;2.52;1.20;;;;;;;6.93;87.28;97665.31;1797909;80;20914;-79
2021/10/01 02:13:46;;;;;;;4.12;1.20;;;;;;;6.91;87.39;97660.75;1798017;78;20976;-79
2021/10/01 02:16:11;;;;;;;2.62;1.27;;;;;;;6.92;87.59;97655.92;1797919;78;21307;-79
2021/10/01 02:18:37;;;;;;;3.17;1.35;;;;;;;6.92;87.70;97650.76;1797897;78;20989;-80
2021/10/01 02:21:03;;;;;;;1.98;1.40;;;;;;;6.92;87.51;97649.47;1797977;80;21045;-79
2021/10/01 02:23:29;;;;;;;2.95;1.70;;;;;;;6.94;87.49;97645.45;1797854;78;21009;-79
2021/10/01 02:28:46;;;;;;;5.58;1.60;;;;;;;6.96;87.98;97644.85;1824100;78;21016;-81
2021/10/01 02:31:23;;;;;;;3.27;2.15;;;;;;;6.96;87.99;97639.69;1824468;78;20949;-81
2021/10/01 02:33:48;;;;;;;3.22;1.50;;;;;;;6.98;87.86;97640.84;1824358;78;20961;-81
2021/10/01 02:36:14;;;;;;;2.60;1.52;;;;;;;6.98;87.82;97637.79;1824319;78;21292;-81
2021/10/01 02:38:40;;;;;;;1.90;1.62;;;;;;;6.99;87.81;97634.73;1824242;78;20934;-81
2021/10/01 02:41:05;;;;;;;5.03;2.17;;;;;;;7.00;87.70;97633.34;1824184;78;20939;-81
2021/10/01 02:43:31;;;;;;;3.17;2.10;;;;;;;7.01;87.87;97634.16;1824346;78;21403;-81
2021/10/01 02:45:57;;;;;;;4.37;1.70;;;;;;;7.01;88.05;97634.16;1824357;78;20917;-81
2021/10/01 02:48:23;;;;;;;1.98;1.50;;;;;;;7.01;88.15;97628.98;1824174;78;20950;-81
2021/10/01 02:50:52;;;;;;;3.15;1.50;;;;;;;7.02;88.23;97624.98;1824206;78;21005;-81
2021/10/01 02:53:23;;;;;;;2.70;1.40;;;;;;;7.05;87.96;97620.02;1824281;78;21000;-81
2021/10/01 02:56:11;;;;;;;3.12;1.65;;;;;;;7.06;87.92;97622.47;1824138;78;20997;-81
2021/10/01 02:58:40;;;;;;;5.22;1.95;;;;;;;7.10;88.00;97616.09;1823944;78;20981;-79
2021/10/01 03:01:10;;;;;;;4.60;1.80;;;;;;;7.12;88.26;97621.94;1824380;78;20941;-78
2021/10/01 03:03:45;;;;;;;4.58;1.85;;;;;;;7.12;88.05;97618.06;1797986;79;20961;-79
2021/10/01 03:06:12;;;;;;;2.85;1.70;;;;;;;7.11;87.94;97619.02;1823930;78;21036;-79
2021/10/01 03:08:38;;;;;;;3.65;1.47;;;;;;;7.11;87.64;97613.03;1824432;78;21505;-79
2021/10/01 03:11:10;;;;;;;3.10;1.80;;;;;;;7.14;87.60;97612.29;1824408;78;20989;-79
2021/10/01 03:13:32;;;;;;;3.37;1.98;;;;;;;7.18;87.58;97610.28;1823166;78;20930;-79
2021/10/01 03:15:59;;;;;;;4.70;1.90;;;;;;;7.19;87.42;97611.92;1771053;79;20960;-79
2021/10/01 03:18:25;;;;;;;2.80;2.10;;;;;;;7.18;87.43;97614.16;1824393;78;20969;-79
2021/10/01 03:20:50;;;;;;;4.10;1.90;;;;;;;7.14;87.46;97609.70;1824320;78;20922;-79
2021/10/01 03:23:18;;;;;;;5.25;2.40;;;;;;;7.07;87.16;97609.89;1796850;79;22137;-79
2021/10/01 03:25:44;;;;;;;1.67;1.40;;;;;;;7.06;87.21;97608.73;1823977;78;21312;-79
2021/10/01 03:28:10;;;;;;;2.85;1.80;;;;;;;7.03;87.08;97605.94;1827009;78;21052;-79
2021/10/01 03:30:36;;;;;;;4.58;2.55;;;;;;;7.01;87.00;97610.90;1827478;78;20953;-79
2021/10/01 03:33:02;;;;;;;2.55;2.22;;;;;;;6.99;87.00;97603.25;1827270;78;21489;-79
2021/10/01 03:35:27;;;;;;;3.65;2.08;;;;;;;6.97;86.90;97609.02;1827215;78;20945;-79
2021/10/01 03:37:53;;;;;;;4.12;2.90;;;;;;;6.96;86.88;97602.22;1827488;78;20985;-79
2021/10/01 03:40:20;;;;;;;3.12;2.12;;;;;;;6.93;86.86;97608.94;1827401;78;20965;-79
2021/10/01 03:42:46;;;;;;;2.60;1.80;;;;;;;6.93;86.85;97607.65;1827559;78;20902;-79
2021/10/01 03:45:12;;;;;;;4.30;2.35;;;;;;;6.95;86.72;97603.64;1827227;78;21020;-79
2021/10/01 03:47:38;;;;;;;3.37;2.35;;;;;;;6.93;86.76;97598.61;1827505;78;21395;-79
2021/10/01 03:50:06;;;;;;;3.35;2.02;;;;;;;6.87;86.64;97589.62;1827455;78;21044;-79
2021/10/01 03:52:32;;;;;;;4.15;2.72;;;;;;;6.87;86.79;97593.48;1827362;78;21367;-79
2021/10/01 03:54:58;;;;;;;5.25;2.15;;;;;;;6.83;86.87;97592.56;1800117;78;21004;-79
2021/10/01 03:57:24;;;;;;;2.87;2.02;;;;;;;6.81;87.07;97582.84;1827325;78;21343;-79
2021/10/01 03:59:50;;;;;;;4.05;1.98;;;;;;;6.78;86.98;97583.91;1827159;78;20993;-79
2021/10/01 04:02:15;;;;;;;2.27;1.98;;;;;;;6.79;87.22;97588.61;1827465;78;20941;-79
2021/10/01 04:04:41;;;;;;;2.37;1.90;;;;;;;6.81;87.37;97580.25;1825727;78;21307;-79
2021/10/01 04:07:07;;;;;;;3.10;2.15;;;;;;;6.80;87.49;97579.91;1826007;78;20989;-79
2021/10/01 04:09:33;;;;;;;3.75;2.22;;;;;;;6.77;87.30;97575.83;1827443;78;20917;-79
2021/10/01 04:11:58;;;;;;;5.12;2.33;;;;;;;6.77;87.44;97577.59;1827532;78;20913;-79
2021/10/01 04:14:24;;;;;;;3.72;2.12;;;;;;;6.77;87.37;97571.13;1827440;78;20897;-79
2021/10/01 04:16:51;;;;;;;3.55;2.00;;;;;;;6.78;87.11;97578.75;1827495;78;20921;-79
2021/10/01 04:19:16;;;;;;;2.42;1.85;;;;;;;6.78;87.28;97576.16;1827382;78;20957;-79
2021/10/01 04:21:44;;;;;;;3.33;1.90;;;;;;;6.79;87.20;97579.09;1827182;78;20973;-79
2021/10/01 04:24:09;;;;;;;2.50;2.05;;;;;;;6.77;87.36;97582.28;1827546;78;20941;-79
2021/10/01 04:26:36;;;;;;;3.75;2.15;;;;;;;6.79;87.42;97579.56;1826155;78;21376;-79
2021/10/01 04:29:01;;;;;;;3.15;2.20;;;;;;;6.77;87.55;97582.28;1824042;78;20972;-79
2021/10/01 04:31:27;;;;;;;4.20;2.45;;;;;;;6.76;87.59;97587.11;1824261;78;20991;-79
2021/10/01 04:33:53;;;;;;;3.00;2.00;;;;;;;6.79;87.72;97587.31;1824338;78;20944;-79
2021/10/01 04:36:18;;;;;;;2.90;1.82;;;;;;;6.83;87.61;97584.37;1824247;79;20949;-79
2021/10/01 04:38:44;;;;;;;3.25;2.42;;;;;;;6.81;88.00;97585.42;1824101;78;20925;-79
2021/10/01 04:41:10;;;;;;;2.95;1.80;;;;;;;6.85;88.16;97584.23;1824190;78;21403;-79
2021/10/01 04:43:36;;;;;;;4.45;2.10;;;;;;;6.83;88.41;97585.66;1824082;78;20980;-79
2021/10/01 04:46:04;;;;;;;3.50;2.00;;;;;;;6.81;88.39;97581.06;1824324;78;20965;-79
2021/10/01 04:48:30;;;;;;;3.95;1.60;;;;;;;6.83;88.37;97583.08;1824168;78;21031;-79
2021/10/01 04:50:55;;;;;;;2.47;1.70;;;;;;;6.84;88.45;97585.19;1824379;79;21335;-79
2021/10/01 04:53:21;;;;;;;2.62;1.72;;;;;;;6.83;88.45;97580.49;1824195;78;20929;-79
2021/10/01 04:55:47;;;;;;;4.05;1.80;;;;;;;6.86;88.30;97580.70;1820303;78;21568;-79
2021/10/01 04:58:13;;;;;;;2.87;2.20;;;;;;;6.89;88.48;97585.61;1785289;79;21044;-79
2021/10/01 05:00:38;;;;;;;5.17;2.83;;;;;;;6.88;88.54;97577.52;1793630;79;20980;-79
2021/10/01 05:03:04;;;;;;;4.22;2.47;;;;;;;6.86;88.37;97579.41;1768508;79;21343;-79
2021/10/01 05:05:30;;;;;;;2.70;2.17;;;;;;;6.87;89.07;97581.05;1796165;79;20948;-79
2021/10/01 05:07:55;;;;;;;3.37;2.02;;;;;;;6.95;89.12;97581.20;1795636;79;21043;-79
2021/10/01 05:10:21;;;;;;;2.30;2.10;;;;;;;6.99;89.14;97582.57;1784947;79;21432;-78
2021/10/01 05:12:47;;;;;;;2.83;2.20;;;;;;;7.04;89.13;97589.48;1807554;79;20938;-79
2021/10/01 05:15:13;;;;;;;3.75;2.70;;;;;;;7.07;89.00;97589.22;1807584;79;20985;-79
2021/10/01 05:17:39;;;;;;;3.58;2.52;;;;;;;7.09;89.10;97591.67;1808106;79;21011;-79
2021/10/01 05:20:08;;;;;;;5.00;2.72;;;;;;;7.10;88.99;97588.13;1808220;79;21320;-79
2021/10/01 05:22:34;;;;;;;3.72;2.55;;;;;;;7.14;89.16;97588.20;1808044;79;20960;-79
2021/10/01 05:25:01;;;;;;;4.87;3.00;;;;;;;7.15;89.15;97591.14;1807446;79;20945;-79
2021/10/01 05:27:29;;;;;;;3.15;2.40;;;;;;;7.17;89.04;97595.73;1801469;79;21061;-79
2021/10/01 05:29:55;;;;;;;3.22;2.27;;;;;;;7.20;88.92;97597.57;1775732;79;20995;-79
2021/10/01 05:32:20;;;;;;;3.55;2.40;;;;;;;7.24;88.86;97590.37;1765053;81;20986;-79
2021/10/01 05:34:46;;;;;;;5.12;2.60;;;;;;;7.26;88.87;97593.63;1767204;80;21423;-79
2021/10/01 05:37:12;;;;;;;4.05;2.08;;;;;;;7.28;88.95;97589.14;1789667;79;20935;-79
2021/10/01 05:39:38;;;;;;;3.08;2.30;;;;;;;7.27;89.14;97580.23;1789933;79;20939;-79
2021/10/01 05:42:03;;;;;;;3.35;2.15;;;;;;;7.27;88.97;97581.52;1767180;79;20951;-79
2021/10/01 05:44:29;;;;;;;3.87;1.90;;;;;;;7.31;89.02;97586.29;1766497;79;20939;-79
2021/10/01 05:46:55;;;;;;;3.33;1.67;;;;;;;7.34;88.85;97587.82;1777924;80;20928;-79
2021/10/01 05:49:25;;;;;;;3.42;1.60;;;;;;;7.36;88.91;97594.49;1778697;80;20999;-79
2021/10/01 05:51:51;;;;;;;3.02;2.20;;;;;;;7.36;88.99;97582.86;1796140;79;20932;-79
2021/10/01 05:54:21;;;;;;;3.60;2.30;;;;;;;7.39;89.18;97589.53;1785149;79;21299;-79
2021/10/01 05:56:56;;;;;;;3.05;2.08;;;;;;;7.39;89.07;97589.05;1767525;79;20987;-79
2021/10/01 05:59:22;;;;;;;2.65;2.00;;;;;;;7.40;88.94;97598.92;1798524;78;20991;-79
2021/10/01 06:01:49;;;;;;;3.17;1.77;;;;;;;7.40;89.05;97593.75;1781003;80;21381;-79
2021/10/01 06:04:15;;;;;;;3.12;1.92;;;;;;;7.41;89.29;97591.50;1793973;79;20987;-79
2021/10/01 06:06:41;;;;;;;4.87;2.25;;;;;;;7.47;89.26;97594.36;1796336;79;21344;-79
2021/10/01 06:09:10;;;;;;;3.58;2.17;;;;;;;7.52;89.40;97593.98;1796493;79;20902;-79
2021/10/01 06:11:36;;;;;;;3.05;2.15;;;;;;;7.53;89.40;97592.56;1789783;79;20994;-79
2021/10/01 06:14:02;;;;;;;4.00;2.33;;;;;;;7.52;89.56;97588.81;1768091;79;21410;-79
2021/10/01 06:16:27;;;;;;;4.28;2.10;;;;;;;7.55;89.59;97587.25;1797345;79;21054;-79
2021/10/01 06:18:54;;;;;;;4.80;2.12;;;;;;;7.57;89.44;97585.34;1780366;79;20951;-78
2021/10/01 06:21:19;;;;;;;2.50;1.90;;;;;;;7.61;89.40;97581.53;1767277;79;21014;-79
2021/10/01 06:23:45;;;;;;;3.58;1.82;;;;;;;7.62;89.12;97585.75;1767327;79;21050;-79
2021/10/01 06:26:11;;;;;;;4.05;2.20;;;;;;;7.65;89.22;97582.11;1777814;79;20973;-79
2021/10/01 06:28:37;;;;;;;3.77;1.80;;;;;;;7.68;89.32;97587.01;1800102;79;21100;-79
2021/10/01 06:31:03;;;;;;;3.67;2.40;;;;;;;7.72;89.41;97582.72;1795564;79;21358;-79
2021/10/01 06:33:29;;;;;;;3.08;1.75;;;;;;;7.79;89.60;97585.56;1773549;79;20966;-79
2021/10/01 06:35:55;;;;;;;4.03;2.00;;;;;;;7.85;89.66;97577.28;1798384;79;21048;-79
2021/10/01 06:38:21;;;;;;;3.40;1.70;;;;;;;7.92;89.62;97579.66;1791669;79;21012;-79
2021/10/01 06:40:47;;;;;;;3.17;2.22;;;;;;;7.97;89.58;97576.66;1770276;79;21036;-79
2021/10/01 06:43:15;;;;;;;2.83;1.90;;;;;;;8.02;89.62;97576.61;1710583;82;21019;-79
2021/10/01 06:45:42;;;;;;;4.00;2.20;;;;;;;8.05;89.65;97576.81;1773917;79;21024;-79
2021/10/01 06:48:16;;;;;;;3.80;2.33;;;;;;;8.09;89.75;97577.69;1802934;79;21008;-79
2021/10/01 08:20:04;;;;;;;11.60;8.88;;;;;;;10.14;86.47;97558.53;1822512;78;20968;-79
2021/10/01 08:22:29;;;;;;;13.38;9.55;;;;;;;10.19;85.96;97562.30;1824243;78;21032;-80
2021/10/01 08:24:55;;;;;;;9.45;7.55;;;;;;;10.29;85.74;97565.33;1824330;78;21025;-79
2021/10/01 08:27:23;;;;;;;14.25;10.28;;;;;;;10.35;86.10;97559.52;1824224;78;21056;-80
2021/10/01 08:29:50;;;;;;;10.48;8.58;;;;;;;10.39;85.46;97566.04;1795422;79;21012;-79
2021/10/01 08:32:16;;;;;;;12.05;8.68;;;;;;;10.45;85.42;97561.55;1785737;80;21052;-79
2021/10/01 08:34:45;;;;;;;10.28;7.00;;;;;;;10.53;85.55;97557.70;1793446;79;21428;-80
2021/10/01 08:37:13;;;;;;;11.78;9.23;;;;;;;10.61;85.87;97557.77;1764878;80;20959;-79
2021/10/01 08:39:39;;;;;;;12.47;8.70;;;;;;;10.69;85.09;97553.90;1794009;79;20965;-79
2021/10/01 08:42:05;;;;;;;7.35;6.37;;;;;;;10.79;84.59;97548.61;1777547;79;21298;-79
2021/10/01 08:44:32;;;;;;;12.65;8.53;;;;;;;10.85;85.02;97553.66;1792305;79;20921;-80
2021/10/01 08:46:58;;;;;;;10.78;9.28;;;;;;;10.90;84.83;97546.20;1782257;78;21342;-80
2021/10/01 08:49:24;;;;;;;11.93;8.40;;;;;;;10.96;84.83;97545.11;1756185;80;20992;-80
2021/10/01 08:51:50;;;;;;;13.68;9.63;;;;;;;11.04;84.89;97546.44;1804383;79;20907;-79
2021/10/01 08:54:18;;;;;;;11.57;8.93;;;;;;;11.11;84.40;97545.34;1806606;79;21310;-81
2021/10/01 08:56:44;;;;;;;11.50;8.78;;;;;;;11.15;83.41;97544.05;1786530;79;21394;-82
2021/10/01 08:59:10;;;;;;;10.23;7.78;;;;;;;11.22;83.21;97545.05;1789848;79;20975;-81
2021/10/01 09:01:35;;;;;;;11.90;8.55;;;;;;;11.32;83.15;97549.64;1801952;79;20965;-81
2021/10/01 09:04:01;;;;;;;11.53;7.58;;;;;;;11.38;82.09;97535.98;1783362;79;20975;-81
2021/10/01 09:06:27;;;;;;;12.58;9.65;;;;;;;11.42;83.10;97537.33;1807896;79;20952;-81
2021/10/01 09:08:56;;;;;;;13.28;9.40;;;;;;;11.48;82.68;97533.27;1808194;79;20936;-81
2021/10/01 09:11:30;;;;;;;11.80;8.78;;;;;;;11.52;82.30;97532.45;1763530;80;21032;-81
2021/10/01 09:14:02;;;;;;;11.65;8.93;;;;;;;11.59;81.78;97538.66;1775521;79;21312;-82
2021/10/01 09:16:28;;;;;;;14.43;8.95;;;;;;;11.67;82.06;97539.48;1750519;79;21314;-81
2021/10/01 09:18:54;;;;;;;12.55;8.95;;;;;;;11.77;82.69;97536.74;1799768;78;20996;-81
2021/10/01 09:21:21;;;;;;;11.93;8.75;;;;;;;11.80;81.31;97531.23;1824236;78;20946;-82
2021/10/01 09:24:03;;;;;;;12.40;9.15;;;;;;;11.85;81.28;97527.65;1824328;78;21060;-82
2021/10/01 09:26:32;;;;;;;13.35;9.93;;;;;;;11.93;80.33;97519.86;1823505;78;21324;-81
2021/10/01 09:29:06;;;;;;;11.60;9.53;;;;;;;12.03;80.54;97521.80;1823723;78;21021;-82
2021/10/01 09:31:46;;;;;;;12.78;8.93;;;;;;;12.11;79.82;97518.88;1823593;78;20976;-82
2021/10/01 09:34:25;;;;;;;11.83;8.40;;;;;;;12.17;79.93;97520.82;1823780;78;21312;-82
2021/10/01 09:37:19;;;;;;;11.33;8.03;;;;;;;12.27;80.60;97519.69;1824276;79;20952;-81
2021/10/01 09:39:48;;;;;;;11.65;7.87;;;;;;;12.35;79.32;97512.82;1824356;78;20902;-81
2021/10/01 09:42:18;;;;;;;13.18;8.25;;;;;;;12.46;80.68;97513.80;1823872;78;20965;-82
2021/10/01 09:45:01;;;;;;;6.12;4.10;;;;;;;12.52;81.10;97518.33;1824349;79;20917;-82
2021/10/01 09:47:37;;;;;;;6.28;5.28;;;;;;;12.55;77.31;97507.11;1824415;78;21380;-82
2021/10/01 09:50:14;;;;;;;6.20;4.30;;;;;;;12.63;77.67;97504.47;1824304;78;20965;-82
2021/10/01 09:52:45;;;;;;;6.67;4.00;;;;;;;12.75;77.65;97505.42;1824289;78;21328;-81
2021/10/01 09:55:13;;;;;;;5.95;4.00;;;;;;;12.81;76.24;97504.73;1824631;78;21032;-82
2021/10/01 09:57:40;;;;;;;8.58;5.25;;;;;;;12.89;76.67;97500.81;1824328;78;20991;-82
2021/10/01 10:00:07;;;;;;;8.58;4.60;;;;;;;12.96;77.77;97497.02;1824409;78;21415;-81
2021/10/01 10:02:37;;;;;;;8.53;5.05;;;;;;;13.06;77.04;97504.17;1824245;78;20977;-82
2021/10/01 10:05:03;;;;;;;4.35;3.35;;;;;;;13.15;77.24;97502.64;1824181;78;20999;-82
2021/10/01 10:07:29;;;;;;;2.45;2.25;;;;;;;13.24;72.26;97490.41;1824145;78;21252;-82
2021/10/01 10:09:59;;;;;;;2.92;2.00;;;;;;;13.33;72.16;97493.77;1824550;78;21334;-82
2021/10/01 10:12:41;;;;;;;5.80;3.62;;;;;;;13.43;73.75;97499.11;1823521;78;20913;-82
2021/10/01 10:15:15;;;;;;;6.35;3.67;;;;;;;13.55;73.79;97499.53;1824284;78;20910;-82
2021/10/01 10:17:51;;;;;;;5.15;3.65;;;;;;;13.66;73.53;97494.38;1824423;78;20953;-82
2021/10/01 10:20:18;;;;;;;2.92;1.98;;;;;;;13.74;73.77;97497.77;1824357;78;20917;-82
2021/10/01 10:22:43;;;;;;;3.70;1.85;;;;;;;13.78;72.84;97493.81;1820014;78;20973;-82
2021/10/01 10:25:09;;;;;;;3.12;1.80;;;;;;;13.89;71.86;97480.03;1824042;78;20917;-82
2021/10/01 10:27:35;;;;;;;2.37;1.50;;;;;;;14.01;70.79;97483.37;1824216;78;20915;-82
2021/10/01 10:30:05;;;;;;;2.08;1.45;;;;;;;14.08;70.79;97484.27;1823944;78;21054;-82
2021/10/01 10:32:31;;;;;;;1.75;1.22;;;;;;;14.12;69.78;97482.92;1824245;79;20937;-82
2021/10/01 10:35:03;;;;;;;2.70;1.60;;;;;;;14.17;70.05;97478.98;1824348;78;20926;-82
2021/10/01 10:37:42;;;;;;;2.60;1.20;;;;;;;14.21;70.35;97481.55;1824385;78;20937;-82
2021/10/01 10:40:13;;;;;;;3.00;1.70;;;;;;;14.33;70.57;97484.88;1824341;78;21367;-82
2021/10/01 10:42:47;;;;;;;2.50;1.70;;;;;;;14.45;70.76;97484.45;1824417;78;21033;-82
2021/10/01 10:45:22;;;;;;;1.80;1.50;;;;;;;14.50;69.53;97482.94;1823965;78;20981;-82
2021/10/01 10:48:01;;;;;;;3.00;1.70;;;;;;;14.52;69.72;97485.37;1824348;78;20961;-82
2021/10/01 10:50:46;;;;;;;2.27;2.05;;;;;;;14.52;69.99;97482.76;1824362;78;20958;-82
2021/10/01 10:53:20;;;;;;;3.40;2.05;;;;;;;14.59;69.71;97486.27;1824337;78;20917;-82
2021/10/01 10:55:57;;;;;;;2.42;1.90;;;;;;;14.82;69.42;97479.66;1823127;78;20941;-82
2021/10/01 10:58:32;;;;;;;4.15;2.20;;;;;;;15.04;67.01;97483.14;1824426;78;20933;-82
2021/10/01 11:01:21;;;;;;;3.58;2.27;;;;;;;15.23;65.75;97477.33;1824299;78;21466;-82
2021/10/01 11:03:46;;;;;;;2.72;1.95;;;;;;;15.28;67.52;97474.95;1824514;78;20969;-82
2021/10/01 11:06:14;;;;;;;2.70;2.00;;;;;;;15.28;67.13;97469.22;1824346;78;20962;-82
2021/10/01 11:08:49;;;;;;;2.37;1.70;;;;;;;15.34;67.35;97475.55;1824282;78;21004;-82
2021/10/01 11:11:37;;;;;;;4.03;2.45;;;;;;;15.34;67.35;97476.86;1824381;78;20932;-82
2021/10/01 11:14:20;;;;;;;5.75;2.50;;;;;;;15.31;65.73;97475.42;1811396;79;21288;-82
2021/10/01 11:17:00;;;;;;;4.78;2.50;;;;;;;15.40;66.13;97464.31;1824252;78;20910;-82
2021/10/01 11:19:44;;;;;;;3.40;2.40;;;;;;;15.50;65.25;97458.79;1822372;78;21005;-82
2021/10/01 11:22:38;;;;;;;4.12;2.30;;;;;;;15.67;65.98;97450.22;1824096;78;20989;-82
2021/10/01 11:25:12;;;;;;;4.25;2.70;;;;;;;15.78;65.09;97454.93;1823547;78;20984;-82
2021/10/01 11:27:58;;;;;;;3.83;2.98;;;;;;;15.68;66.95;97448.72;1820762;78;20931;-82
2021/10/01 11:30:25;;;;;;;3.90;2.42;;;;;;;15.54;66.53;97446.94;1827876;78;21001;-82
2021/10/01 11:32:51;;;;;;;4.58;2.70;;;;;;;15.40;66.62;97442.06;1828050;78;20898;-82
2021/10/01 11:35:16;;;;;;;2.95;2.05;;;;;;;15.42;65.27;97434.82;1827945;78;21288;-82
2021/10/01 11:37:46;;;;;;;3.45;2.30;;;;;;;15.51;66.51;97440.77;1828116;78;21379;-82
2021/10/01 11:40:29;;;;;;;3.10;2.45;;;;;;;15.69;65.58;97436.42;1828122;78;20933;-82
2021/10/01 11:42:58;;;;;;;5.40;2.70;;;;;;;15.76;64.74;97439.91;1828121;78;20956;-82
2021/10/01 11:45:33;;;;;;;4.10;2.47;;;;;;;15.78;66.27;97433.50;1827851;78;20989;-82
2021/10/01 11:48:04;;;;;;;3.65;2.47;;;;;;;15.91;66.00;97432.27;1828047;78;20957;-82
2021/10/01 11:50:36;;;;;;;4.95;2.47;;;;;;;16.03;63.11;97428.64;1804826;78;20971;-82
2021/10/01 11:53:04;;;;;;;2.95;2.35;;;;;;;16.19;64.26;97426.23;1826831;78;21005;-82
2021/10/01 11:55:34;;;;;;;2.77;2.10;;;;;;;16.30;63.81;97425.72;1827915;78;20989;-82
2021/10/01 11:58:02;;;;;;;4.35;3.05;;;;;;;16.27;61.92;97426.58;1828060;78;20997;-82
2021/10/01 12:00:28;;;;;;;2.90;2.20;;;;;;;16.25;63.26;97422.03;1828059;78;21476;-82
2021/10/01 12:02:54;;;;;;;3.72;2.40;;;;;;;16.34;62.46;97422.20;1828110;78;20949;-82
2021/10/01 12:05:30;;;;;;;3.58;2.87;;;;;;;16.37;62.15;97419.19;1828322;78;21348;-83
2021/10/01 12:08:10;;;;;;;2.52;2.20;;;;;;;16.35;63.87;97418.07;1828065;78;22076;-82
2021/10/01 12:10:39;;;;;;;4.70;2.90;;;;;;;16.19;64.44;97417.87;1827886;78;20913;-82
2021/10/01 12:13:11;;;;;;;4.17;2.45;;;;;;;16.04;64.22;97416.34;1814895;78;20970;-82
2021/10/01 12:15:56;;;;;;;3.65;2.75;;;;;;;15.96;64.30;97408.14;1805162;78;20929;-82
2021/10/01 12:18:44;;;;;;;5.30;2.67;;;;;;;16.05;63.58;97416.15;1828062;78;20972;-82
2021/10/01 12:21:17;;;;;;;3.02;2.25;;;;;;;15.86;61.67;97408.45;1827958;78;21318;-82
2021/10/01 12:23:59;;;;;;;3.25;2.50;;;;;;;15.93;61.55;97407.69;1828159;78;20956;-82
2021/10/01 12:26:32;;;;;;;3.35;2.05;;;;;;;16.02;62.97;97392.95;1828186;78;20902;-82
2021/10/01 12:29:23;;;;;;;2.83;2.42;;;;;;;16.17;64.39;97391.53;1827064;78;21382;-82
2021/10/01 12:31:52;;;;;;;2.87;2.52;;;;;;;16.30;62.08;97390.81;1802307;78;21436;-83
2021/10/01 12:34:27;;;;;;;4.83;3.87;;;;;;;16.43;63.03;97389.08;1827452;78;21375;-83
2021/10/01 12:37:03;;;;;;;5.53;3.33;;;;;;;16.49;63.18;97386.17;1826478;78;21083;-82
2021/10/01 12:39:31;;;;;;;4.20;3.27;;;;;;;16.48;63.68;97382.73;1827484;78;20976;-82
2021/10/01 12:42:04;;;;;;;3.92;2.83;;;;;;;16.46;63.25;97384.75;1827343;78;20992;-82
2021/10/01 12:44:36;;;;;;;3.80;2.92;;;;;;;16.34;63.05;97384.98;1826530;78;21045;-82
2021/10/01 12:47:17;;;;;;;4.58;2.90;;;;;;;16.21;63.46;97380.45;1827094;78;20949;-82
2021/10/01 12:49:45;;;;;;;;;;;;;;;16.09;63.95;97381.99;1830050;78;20959;-82
2021/10/01 12:52:20;;;;;;;5.05;2.65;;;;;;;15.97;64.64;97378.30;1825444;78;20094;-83
2021/10/01 12:54:55;;;;;;;4.33;2.87;;;;;;;15.92;65.46;97371.48;1827411;78;20980;-82
2021/10/01 12:57:33;;;;;;;3.67;2.80;;;;;;;16.00;64.83;97374.48;1827508;78;21339;-83
2021/10/01 13:00:06;;;;;;;3.33;2.95;;;;;;;16.14;64.17;97373.06;1827322;78;20976;-82
2021/10/01 13:02:51;;;;;;;4.05;2.55;;;;;;;16.06;64.28;97364.53;1827515;78;21319;-82
2021/10/01 13:05:21;;;;;;;2.72;2.40;;;;;;;16.08;64.70;97356.78;1827401;78;21361;-82
2021/10/01 13:08:00;;;;;;;4.45;2.47;;;;;;;16.11;65.05;97356.42;1827464;78;21015;-82
2021/10/01 13:10:43;;;;;;;3.55;2.60;;;;;;;16.17;65.70;97346.45;1794208;80;20976;-82
2021/10/01 13:13:18;;;;;;;4.30;2.58;;;;;;;16.25;66.19;97344.16;1794526;79;21359;-83
2021/10/01 13:15:49;;;;;;;4.65;2.85;;;;;;;16.28;66.72;97341.69;1785688;79;20998;-82
2021/10/01 13:18:31;;;;;;;5.35;2.70;;;;;;;16.27;64.57;97340.03;1794690;79;21324;-82
2021/10/01 13:21:15;;;;;;;;;;;;;;;16.34;64.01;97332.52;1793700;80;21319;-82
2021/10/01 13:23:48;;;;;;;6.22;3.65;;;;;;;16.46;62.64;97332.28;1785737;79;20322;-82